sensor_id;sensor_type;location;lat;lon;timestamp;P1;durP1;ratioP1;P2;durP2;ratioP2
59390;SDS011;53405;57.012;40.984;2024-02-14T00:00:50;19.50;;;8.48;;
59390;SDS011;53405;57.012;40.984;2024-02-14T00:03:18;20.80;;;9.30;;
59390;SDS011;53405;57.012;40.984;2024-02-14T00:05:47;18.92;;;8.82;;
59390;SDS011;53405;57.012;40.984;2024-02-14T00:08:15;18.20;;;8.90;;
59390;SDS011;53405;57.012;40.984;2024-02-14T00:10:42;20.45;;;8.80;;
59390;SDS011;53405;57.012;40.984;2024-02-14T00:13:12;21.65;;;9.65;;
59390;SDS011;53405;57.012;40.984;2024-02-14T00:15:40;21.98;;;9.82;;
59390;SDS011;53405;57.012;40.984;2024-02-14T00:18:08;19.67;;;8.90;;
59390;SDS011;53405;57.012;40.984;2024-02-14T00:20:37;23.00;;;9.65;;
59390;SDS011;53405;57.012;40.984;2024-02-14T00:23:07;19.35;;;8.32;;
59390;SDS011;53405;57.012;40.984;2024-02-14T00:25:35;20.00;;;8.70;;
59390;SDS011;53405;57.012;40.984;2024-02-14T00:28:03;20.05;;;8.70;;
59390;SDS011;53405;57.012;40.984;2024-02-14T00:30:31;21.17;;;9.02;;
59390;SDS011;53405;57.012;40.984;2024-02-14T00:33:24;25.50;;;11.15;;
59390;SDS011;53405;57.012;40.984;2024-02-14T00:35:53;24.40;;;11.60;;
59390;SDS011;53405;57.012;40.984;2024-02-14T00:38:21;25.17;;;13.95;;
59390;SDS011;53405;57.012;40.984;2024-02-14T00:40:49;25.15;;;11.93;;
59390;SDS011;53405;57.012;40.984;2024-02-14T00:43:16;28.83;;;12.40;;
59390;SDS011;53405;57.012;40.984;2024-02-14T00:45:44;21.38;;;11.98;;
59390;SDS011;53405;57.012;40.984;2024-02-14T00:48:12;20.80;;;10.05;;
59390;SDS011;53405;57.012;40.984;2024-02-14T00:50:41;22.35;;;9.77;;
59390;SDS011;53405;57.012;40.984;2024-02-14T00:53:08;24.63;;;10.80;;
59390;SDS011;53405;57.012;40.984;2024-02-14T00:55:36;22.63;;;11.27;;
59390;SDS011;53405;57.012;40.984;2024-02-14T00:58:04;23.45;;;11.15;;
59390;SDS011;53405;57.012;40.984;2024-02-14T01:00:32;25.55;;;10.48;;
59390;SDS011;53405;57.012;40.984;2024-02-14T01:03:02;19.05;;;9.77;;
59390;SDS011;53405;57.012;40.984;2024-02-14T01:05:30;24.90;;;10.65;;
59390;SDS011;53405;57.012;40.984;2024-02-14T01:07:59;22.30;;;11.63;;
59390;SDS011;53405;57.012;40.984;2024-02-14T01:10:27;20.77;;;9.50;;
59390;SDS011;53405;57.012;40.984;2024-02-14T01:12:54;21.45;;;11.45;;
59390;SDS011;53405;57.012;40.984;2024-02-14T01:15:23;23.00;;;10.38;;
59390;SDS011;53405;57.012;40.984;2024-02-14T01:17:50;23.35;;;11.60;;
59390;SDS011;53405;57.012;40.984;2024-02-14T01:20:18;22.70;;;11.25;;
59390;SDS011;53405;57.012;40.984;2024-02-14T01:22:46;24.70;;;11.77;;
59390;SDS011;53405;57.012;40.984;2024-02-14T01:25:30;23.58;;;11.00;;
59390;SDS011;53405;57.012;40.984;2024-02-14T01:27:57;22.65;;;11.00;;
59390;SDS011;53405;57.012;40.984;2024-02-14T01:30:27;25.92;;;11.52;;
59390;SDS011;53405;57.012;40.984;2024-02-14T01:32:55;25.58;;;11.52;;
59390;SDS011;53405;57.012;40.984;2024-02-14T01:35:23;23.17;;;11.60;;
59390;SDS011;53405;57.012;40.984;2024-02-14T01:37:51;20.55;;;10.55;;
59390;SDS011;53405;57.012;40.984;2024-02-14T01:40:19;24.87;;;11.00;;
59390;SDS011;53405;57.012;40.984;2024-02-14T01:43:03;22.75;;;10.27;;
59390;SDS011;53405;57.012;40.984;2024-02-14T01:45:31;22.77;;;10.52;;
59390;SDS011;53405;57.012;40.984;2024-02-14T01:48:16;25.42;;;12.10;;
59390;SDS011;53405;57.012;40.984;2024-02-14T01:50:46;25.33;;;11.75;;
59390;SDS011;53405;57.012;40.984;2024-02-14T01:53:14;22.52;;;11.27;;
59390;SDS011;53405;57.012;40.984;2024-02-14T01:55:42;24.73;;;11.32;;
59390;SDS011;53405;57.012;40.984;2024-02-14T01:58:13;25.67;;;10.77;;
59390;SDS011;53405;57.012;40.984;2024-02-14T02:00:41;20.35;;;10.60;;
59390;SDS011;53405;57.012;40.984;2024-02-14T02:03:13;24.80;;;12.27;;
59390;SDS011;53405;57.012;40.984;2024-02-14T02:05:41;25.92;;;13.10;;
59390;SDS011;53405;57.012;40.984;2024-02-14T02:08:09;28.35;;;12.60;;
59390;SDS011;53405;57.012;40.984;2024-02-14T02:10:37;29.75;;;12.88;;
59390;SDS011;53405;57.012;40.984;2024-02-14T02:13:28;28.13;;;13.45;;
59390;SDS011;53405;57.012;40.984;2024-02-14T02:16:16;27.20;;;13.45;;
59390;SDS011;53405;57.012;40.984;2024-02-14T02:19:05;32.67;;;12.60;;
59390;SDS011;53405;57.012;40.984;2024-02-14T02:21:55;22.52;;;11.50;;
59390;SDS011;53405;57.012;40.984;2024-02-14T02:24:23;24.02;;;12.07;;
59390;SDS011;53405;57.012;40.984;2024-02-14T02:26:51;26.38;;;12.23;;
59390;SDS011;53405;57.012;40.984;2024-02-14T02:29:39;25.30;;;12.57;;
59390;SDS011;53405;57.012;40.984;2024-02-14T02:32:07;26.45;;;12.18;;
59390;SDS011;53405;57.012;40.984;2024-02-14T02:34:37;21.13;;;10.40;;
59390;SDS011;53405;57.012;40.984;2024-02-14T02:37:06;23.17;;;11.18;;
59390;SDS011;53405;57.012;40.984;2024-02-14T02:40:08;23.17;;;10.30;;
59390;SDS011;53405;57.012;40.984;2024-02-14T02:43:00;23.48;;;10.63;;
59390;SDS011;53405;57.012;40.984;2024-02-14T02:45:47;20.52;;;10.13;;
59390;SDS011;53405;57.012;40.984;2024-02-14T02:48:35;22.92;;;9.80;;
59390;SDS011;53405;57.012;40.984;2024-02-14T02:51:17;20.48;;;9.68;;
59390;SDS011;53405;57.012;40.984;2024-02-14T02:54:07;23.05;;;10.68;;
59390;SDS011;53405;57.012;40.984;2024-02-14T02:56:56;23.15;;;10.43;;
59390;SDS011;53405;57.012;40.984;2024-02-14T02:59:24;19.85;;;9.85;;
59390;SDS011;53405;57.012;40.984;2024-02-14T03:01:51;22.17;;;9.20;;
59390;SDS011;53405;57.012;40.984;2024-02-14T03:04:39;22.48;;;10.55;;
59390;SDS011;53405;57.012;40.984;2024-02-14T03:07:38;23.92;;;12.02;;
59390;SDS011;53405;57.012;40.984;2024-02-14T03:10:26;23.38;;;10.80;;
59390;SDS011;53405;57.012;40.984;2024-02-14T03:13:15;24.37;;;10.90;;
59390;SDS011;53405;57.012;40.984;2024-02-14T03:16:04;21.15;;;10.13;;
59390;SDS011;53405;57.012;40.984;2024-02-14T03:18:32;21.23;;;9.50;;
59390;SDS011;53405;57.012;40.984;2024-02-14T03:21:00;25.75;;;10.30;;
59390;SDS011;53405;57.012;40.984;2024-02-14T03:23:28;25.30;;;11.07;;
59390;SDS011;53405;57.012;40.984;2024-02-14T03:25:57;21.05;;;10.18;;
59390;SDS011;53405;57.012;40.984;2024-02-14T03:28:25;22.05;;;10.25;;
59390;SDS011;53405;57.012;40.984;2024-02-14T03:30:53;22.83;;;10.35;;
59390;SDS011;53405;57.012;40.984;2024-02-14T03:33:21;26.30;;;10.23;;
59390;SDS011;53405;57.012;40.984;2024-02-14T03:35:49;23.83;;;10.45;;
59390;SDS011;53405;57.012;40.984;2024-02-14T03:38:28;20.17;;;9.65;;
59390;SDS011;53405;57.012;40.984;2024-02-14T03:40:58;20.95;;;10.50;;
59390;SDS011;53405;57.012;40.984;2024-02-14T03:43:26;21.85;;;9.85;;
59390;SDS011;53405;57.012;40.984;2024-02-14T03:45:55;20.90;;;9.32;;
59390;SDS011;53405;57.012;40.984;2024-02-14T03:48:23;35.75;;;14.32;;
59390;SDS011;53405;57.012;40.984;2024-02-14T03:50:51;44.63;;;15.68;;
59390;SDS011;53405;57.012;40.984;2024-02-14T03:53:19;34.75;;;14.30;;
59390;SDS011;53405;57.012;40.984;2024-02-14T03:55:47;28.40;;;12.55;;
59390;SDS011;53405;57.012;40.984;2024-02-14T03:58:16;32.33;;;16.45;;
59390;SDS011;53405;57.012;40.984;2024-02-14T04:00:47;42.15;;;17.42;;
59390;SDS011;53405;57.012;40.984;2024-02-14T04:03:18;45.78;;;22.00;;
59390;SDS011;53405;57.012;40.984;2024-02-14T04:05:46;37.05;;;17.55;;
59390;SDS011;53405;57.012;40.984;2024-02-14T04:08:15;33.80;;;17.40;;
59390;SDS011;53405;57.012;40.984;2024-02-14T04:10:42;28.17;;;13.65;;
59390;SDS011;53405;57.012;40.984;2024-02-14T04:13:12;27.67;;;12.05;;
59390;SDS011;53405;57.012;40.984;2024-02-14T04:15:40;21.90;;;10.77;;
59390;SDS011;53405;57.012;40.984;2024-02-14T04:18:21;23.15;;;10.73;;
59390;SDS011;53405;57.012;40.984;2024-02-14T04:20:49;23.73;;;10.75;;
59390;SDS011;53405;57.012;40.984;2024-02-14T04:23:17;23.77;;;11.05;;
59390;SDS011;53405;57.012;40.984;2024-02-14T04:25:44;26.48;;;11.25;;
59390;SDS011;53405;57.012;40.984;2024-02-14T04:28:12;27.88;;;10.88;;
59390;SDS011;53405;57.012;40.984;2024-02-14T04:30:40;21.25;;;10.73;;
59390;SDS011;53405;57.012;40.984;2024-02-14T04:33:20;23.30;;;10.77;;
59390;SDS011;53405;57.012;40.984;2024-02-14T04:35:49;25.88;;;11.32;;
59390;SDS011;53405;57.012;40.984;2024-02-14T04:38:17;23.15;;;11.45;;
59390;SDS011;53405;57.012;40.984;2024-02-14T04:40:46;23.83;;;11.30;;
59390;SDS011;53405;57.012;40.984;2024-02-14T04:43:15;24.00;;;11.13;;
59390;SDS011;53405;57.012;40.984;2024-02-14T04:45:43;26.45;;;11.90;;
59390;SDS011;53405;57.012;40.984;2024-02-14T04:48:16;22.80;;;10.77;;
59390;SDS011;53405;57.012;40.984;2024-02-14T04:50:44;24.87;;;12.90;;
59390;SDS011;53405;57.012;40.984;2024-02-14T04:53:12;25.90;;;11.80;;
59390;SDS011;53405;57.012;40.984;2024-02-14T04:55:39;25.10;;;11.90;;
59390;SDS011;53405;57.012;40.984;2024-02-14T04:58:07;24.60;;;11.85;;
59390;SDS011;53405;57.012;40.984;2024-02-14T05:00:35;25.35;;;12.45;;
59390;SDS011;53405;57.012;40.984;2024-02-14T05:03:03;23.00;;;10.57;;
59390;SDS011;53405;57.012;40.984;2024-02-14T05:05:31;23.85;;;11.20;;
59390;SDS011;53405;57.012;40.984;2024-02-14T05:08:03;24.05;;;10.90;;
59390;SDS011;53405;57.012;40.984;2024-02-14T05:10:31;36.47;;;14.93;;
59390;SDS011;53405;57.012;40.984;2024-02-14T05:12:59;30.10;;;13.35;;
59390;SDS011;53405;57.012;40.984;2024-02-14T05:15:29;47.03;;;21.33;;
59390;SDS011;53405;57.012;40.984;2024-02-14T05:17:57;26.95;;;11.63;;
59390;SDS011;53405;57.012;40.984;2024-02-14T05:20:24;31.25;;;14.20;;
59390;SDS011;53405;57.012;40.984;2024-02-14T05:22:52;25.35;;;11.23;;
59390;SDS011;53405;57.012;40.984;2024-02-14T05:25:21;27.55;;;11.60;;
59390;SDS011;53405;57.012;40.984;2024-02-14T05:28:01;31.98;;;14.45;;
59390;SDS011;53405;57.012;40.984;2024-02-14T05:30:29;24.53;;;11.17;;
59390;SDS011;53405;57.012;40.984;2024-02-14T05:33:15;20.85;;;10.80;;
59390;SDS011;53405;57.012;40.984;2024-02-14T05:35:43;34.08;;;18.90;;
59390;SDS011;53405;57.012;40.984;2024-02-14T05:38:10;22.83;;;10.27;;
59390;SDS011;53405;57.012;40.984;2024-02-14T05:40:38;26.05;;;11.05;;
59390;SDS011;53405;57.012;40.984;2024-02-14T05:43:06;23.42;;;10.75;;
59390;SDS011;53405;57.012;40.984;2024-02-14T05:45:34;26.10;;;11.95;;
59390;SDS011;53405;57.012;40.984;2024-02-14T05:48:02;40.75;;;26.98;;
59390;SDS011;53405;57.012;40.984;2024-02-14T05:50:31;26.60;;;12.67;;
59390;SDS011;53405;57.012;40.984;2024-02-14T05:52:58;25.75;;;11.55;;
59390;SDS011;53405;57.012;40.984;2024-02-14T05:55:26;24.20;;;11.45;;
59390;SDS011;53405;57.012;40.984;2024-02-14T05:58:02;24.75;;;11.82;;
59390;SDS011;53405;57.012;40.984;2024-02-14T06:00:32;23.95;;;10.75;;
59390;SDS011;53405;57.012;40.984;2024-02-14T06:03:04;26.05;;;11.23;;
59390;SDS011;53405;57.012;40.984;2024-02-14T06:05:35;30.77;;;12.85;;
59390;SDS011;53405;57.012;40.984;2024-02-14T06:08:03;33.17;;;12.10;;
59390;SDS011;53405;57.012;40.984;2024-02-14T06:10:31;28.98;;;13.02;;
59390;SDS011;53405;57.012;40.984;2024-02-14T06:12:58;23.42;;;12.50;;
59390;SDS011;53405;57.012;40.984;2024-02-14T06:15:27;21.47;;;10.63;;
59390;SDS011;53405;57.012;40.984;2024-02-14T06:17:55;24.38;;;12.35;;
59390;SDS011;53405;57.012;40.984;2024-02-14T06:20:23;25.77;;;12.57;;
59390;SDS011;53405;57.012;40.984;2024-02-14T06:22:52;26.95;;;12.73;;
59390;SDS011;53405;57.012;40.984;2024-02-14T06:25:31;24.77;;;12.82;;
59390;SDS011;53405;57.012;40.984;2024-02-14T06:28:13;23.33;;;11.57;;
59390;SDS011;53405;57.012;40.984;2024-02-14T06:30:41;27.63;;;13.68;;
59390;SDS011;53405;57.012;40.984;2024-02-14T06:33:09;31.33;;;12.93;;
59390;SDS011;53405;57.012;40.984;2024-02-14T06:35:37;28.73;;;12.13;;
59390;SDS011;53405;57.012;40.984;2024-02-14T06:38:05;24.20;;;11.80;;
59390;SDS011;53405;57.012;40.984;2024-02-14T06:40:34;25.92;;;10.18;;
59390;SDS011;53405;57.012;40.984;2024-02-14T06:43:01;23.30;;;11.07;;
59390;SDS011;53405;57.012;40.984;2024-02-14T06:45:32;23.98;;;11.68;;
59390;SDS011;53405;57.012;40.984;2024-02-14T06:48:19;24.30;;;12.55;;
59390;SDS011;53405;57.012;40.984;2024-02-14T06:50:52;23.30;;;11.50;;
59390;SDS011;53405;57.012;40.984;2024-02-14T06:53:20;25.42;;;11.32;;
59390;SDS011;53405;57.012;40.984;2024-02-14T06:55:47;22.50;;;10.55;;
59390;SDS011;53405;57.012;40.984;2024-02-14T06:58:15;24.40;;;11.82;;
59390;SDS011;53405;57.012;40.984;2024-02-14T07:00:43;21.48;;;10.52;;
59390;SDS011;53405;57.012;40.984;2024-02-14T07:03:11;24.40;;;12.67;;
59390;SDS011;53405;57.012;40.984;2024-02-14T07:05:39;24.05;;;11.68;;
59390;SDS011;53405;57.012;40.984;2024-02-14T07:08:07;24.23;;;11.48;;
59390;SDS011;53405;57.012;40.984;2024-02-14T07:10:35;24.33;;;10.30;;
59390;SDS011;53405;57.012;40.984;2024-02-14T07:13:03;22.45;;;11.27;;
59390;SDS011;53405;57.012;40.984;2024-02-14T07:15:31;22.58;;;10.65;;
59390;SDS011;53405;57.012;40.984;2024-02-14T07:17:59;27.45;;;11.73;;
59390;SDS011;53405;57.012;40.984;2024-02-14T07:20:27;28.37;;;13.07;;
59390;SDS011;53405;57.012;40.984;2024-02-14T07:22:56;25.03;;;11.53;;
59390;SDS011;53405;57.012;40.984;2024-02-14T07:25:25;21.77;;;9.68;;
59390;SDS011;53405;57.012;40.984;2024-02-14T07:27:52;22.35;;;9.82;;
59390;SDS011;53405;57.012;40.984;2024-02-14T07:30:20;21.35;;;10.63;;
59390;SDS011;53405;57.012;40.984;2024-02-14T07:32:48;21.90;;;9.05;;
59390;SDS011;53405;57.012;40.984;2024-02-14T07:35:16;19.80;;;8.90;;
59390;SDS011;53405;57.012;40.984;2024-02-14T07:37:44;19.88;;;9.73;;
59390;SDS011;53405;57.012;40.984;2024-02-14T07:40:14;22.08;;;10.57;;
59390;SDS011;53405;57.012;40.984;2024-02-14T07:43:04;30.20;;;14.98;;
59390;SDS011;53405;57.012;40.984;2024-02-14T07:45:34;20.73;;;10.90;;
59390;SDS011;53405;57.012;40.984;2024-02-14T07:48:02;19.63;;;9.65;;
59390;SDS011;53405;57.012;40.984;2024-02-14T07:50:31;21.02;;;9.63;;
59390;SDS011;53405;57.012;40.984;2024-02-14T07:52:59;19.73;;;10.82;;
59390;SDS011;53405;57.012;40.984;2024-02-14T07:55:26;20.20;;;9.30;;
59390;SDS011;53405;57.012;40.984;2024-02-14T07:57:55;21.95;;;9.25;;
59390;SDS011;53405;57.012;40.984;2024-02-14T08:00:23;17.15;;;8.23;;
59390;SDS011;53405;57.012;40.984;2024-02-14T08:02:51;18.40;;;8.50;;
59390;SDS011;53405;57.012;40.984;2024-02-14T08:05:19;27.35;;;12.68;;
59390;SDS011;53405;57.012;40.984;2024-02-14T08:07:47;39.13;;;17.15;;
59390;SDS011;53405;57.012;40.984;2024-02-14T08:10:15;20.92;;;10.10;;
59390;SDS011;53405;57.012;40.984;2024-02-14T08:12:44;21.13;;;8.40;;
59390;SDS011;53405;57.012;40.984;2024-02-14T08:15:11;22.00;;;10.73;;
59390;SDS011;53405;57.012;40.984;2024-02-14T08:17:40;39.35;;;17.48;;
59390;SDS011;53405;57.012;40.984;2024-02-14T08:20:12;23.33;;;10.65;;
59390;SDS011;53405;57.012;40.984;2024-02-14T08:22:55;20.10;;;9.00;;
59390;SDS011;53405;57.012;40.984;2024-02-14T08:25:23;19.17;;;8.13;;
59390;SDS011;53405;57.012;40.984;2024-02-14T08:27:51;18.45;;;8.80;;
59390;SDS011;53405;57.012;40.984;2024-02-14T08:30:18;17.08;;;7.55;;
59390;SDS011;53405;57.012;40.984;2024-02-14T08:32:47;18.25;;;8.85;;
59390;SDS011;53405;57.012;40.984;2024-02-14T08:35:15;17.17;;;8.20;;
59390;SDS011;53405;57.012;40.984;2024-02-14T08:37:43;18.38;;;9.05;;
59390;SDS011;53405;57.012;40.984;2024-02-14T08:40:10;18.85;;;8.15;;
59390;SDS011;53405;57.012;40.984;2024-02-14T08:42:40;17.35;;;8.93;;
59390;SDS011;53405;57.012;40.984;2024-02-14T08:45:07;16.80;;;8.00;;
59390;SDS011;53405;57.012;40.984;2024-02-14T08:47:37;17.88;;;8.63;;
59390;SDS011;53405;57.012;40.984;2024-02-14T08:50:05;16.95;;;7.82;;
59390;SDS011;53405;57.012;40.984;2024-02-14T08:52:33;20.65;;;8.43;;
59390;SDS011;53405;57.012;40.984;2024-02-14T08:55:01;13.52;;;7.00;;
59390;SDS011;53405;57.012;40.984;2024-02-14T08:57:30;14.93;;;6.68;;
59390;SDS011;53405;57.012;40.984;2024-02-14T08:59:59;20.60;;;9.50;;
59390;SDS011;53405;57.012;40.984;2024-02-14T09:02:30;22.13;;;9.98;;
59390;SDS011;53405;57.012;40.984;2024-02-14T09:04:58;19.42;;;8.45;;
59390;SDS011;53405;57.012;40.984;2024-02-14T09:07:25;17.38;;;7.85;;
59390;SDS011;53405;57.012;40.984;2024-02-14T09:09:53;14.93;;;5.72;;
59390;SDS011;53405;57.012;40.984;2024-02-14T09:12:21;17.98;;;8.18;;
59390;SDS011;53405;57.012;40.984;2024-02-14T09:14:49;18.45;;;8.38;;
59390;SDS011;53405;57.012;40.984;2024-02-14T09:17:17;14.93;;;6.18;;
59390;SDS011;53405;57.012;40.984;2024-02-14T09:19:44;20.33;;;9.30;;
59390;SDS011;53405;57.012;40.984;2024-02-14T09:22:12;17.45;;;8.38;;
59390;SDS011;53405;57.012;40.984;2024-02-14T09:24:45;18.50;;;8.93;;
59390;SDS011;53405;57.012;40.984;2024-02-14T09:27:13;16.05;;;7.55;;
59390;SDS011;53405;57.012;40.984;2024-02-14T09:29:42;18.33;;;8.43;;
59390;SDS011;53405;57.012;40.984;2024-02-14T09:32:10;15.90;;;8.30;;
59390;SDS011;53405;57.012;40.984;2024-02-14T09:34:38;18.58;;;8.45;;
59390;SDS011;53405;57.012;40.984;2024-02-14T09:37:06;19.67;;;9.25;;
59390;SDS011;53405;57.012;40.984;2024-02-14T09:39:34;13.95;;;6.47;;
59390;SDS011;53405;57.012;40.984;2024-02-14T09:42:06;22.38;;;10.35;;
59390;SDS011;53405;57.012;40.984;2024-02-14T09:44:37;21.30;;;8.65;;
59390;SDS011;53405;57.012;40.984;2024-02-14T09:47:07;21.65;;;9.55;;
59390;SDS011;53405;57.012;40.984;2024-02-14T09:49:36;15.40;;;6.60;;
59390;SDS011;53405;57.012;40.984;2024-02-14T09:54:33;19.73;;;8.05;;
59390;SDS011;53405;57.012;40.984;2024-02-14T09:57:06;13.80;;;6.65;;
59390;SDS011;53405;57.012;40.984;2024-02-14T09:59:35;18.23;;;7.70;;
59390;SDS011;53405;57.012;40.984;2024-02-14T10:02:04;17.55;;;7.82;;
59390;SDS011;53405;57.012;40.984;2024-02-14T10:04:32;18.25;;;8.90;;
59390;SDS011;53405;57.012;40.984;2024-02-14T10:07:00;16.75;;;8.75;;
59390;SDS011;53405;57.012;40.984;2024-02-14T10:09:29;18.10;;;8.93;;
59390;SDS011;53405;57.012;40.984;2024-02-14T10:11:57;18.07;;;8.30;;
59390;SDS011;53405;57.012;40.984;2024-02-14T10:14:25;15.88;;;7.90;;
59390;SDS011;53405;57.012;40.984;2024-02-14T10:16:53;17.10;;;7.45;;
59390;SDS011;53405;57.012;40.984;2024-02-14T10:19:21;15.07;;;7.00;;
59390;SDS011;53405;57.012;40.984;2024-02-14T10:21:56;14.73;;;6.93;;
59390;SDS011;53405;57.012;40.984;2024-02-14T10:24:25;16.90;;;8.27;;
59390;SDS011;53405;57.012;40.984;2024-02-14T10:26:54;17.15;;;8.00;;
59390;SDS011;53405;57.012;40.984;2024-02-14T10:29:25;17.27;;;8.48;;
59390;SDS011;53405;57.012;40.984;2024-02-14T10:31:54;15.30;;;8.45;;
59390;SDS011;53405;57.012;40.984;2024-02-14T10:34:25;18.80;;;8.15;;
59390;SDS011;53405;57.012;40.984;2024-02-14T10:36:56;20.20;;;9.05;;
59390;SDS011;53405;57.012;40.984;2024-02-14T10:39:25;18.25;;;9.10;;
59390;SDS011;53405;57.012;40.984;2024-02-14T10:41:54;17.70;;;8.43;;
59390;SDS011;53405;57.012;40.984;2024-02-14T10:44:22;18.77;;;8.52;;
59390;SDS011;53405;57.012;40.984;2024-02-14T10:46:49;13.48;;;6.60;;
59390;SDS011;53405;57.012;40.984;2024-02-14T10:49:19;18.33;;;8.60;;
59390;SDS011;53405;57.012;40.984;2024-02-14T10:51:48;18.53;;;8.17;;
59390;SDS011;53405;57.012;40.984;2024-02-14T10:54:20;16.77;;;8.45;;
59390;SDS011;53405;57.012;40.984;2024-02-14T10:56:49;16.53;;;8.90;;
59390;SDS011;53405;57.012;40.984;2024-02-14T10:59:19;22.35;;;10.50;;
59390;SDS011;53405;57.012;40.984;2024-02-14T11:01:51;26.98;;;12.25;;
59390;SDS011;53405;57.012;40.984;2024-02-14T11:04:19;18.48;;;8.60;;
59390;SDS011;53405;57.012;40.984;2024-02-14T11:06:48;16.98;;;8.30;;
59390;SDS011;53405;57.012;40.984;2024-02-14T11:12:33;18.30;;;9.05;;
59390;SDS011;53405;57.012;40.984;2024-02-14T11:15:17;17.88;;;9.20;;
59390;SDS011;53405;57.012;40.984;2024-02-14T11:17:47;17.67;;;7.43;;
59390;SDS011;53405;57.012;40.984;2024-02-14T11:20:17;18.17;;;10.15;;
59390;SDS011;53405;57.012;40.984;2024-02-14T11:22:52;17.83;;;8.98;;
59390;SDS011;53405;57.012;40.984;2024-02-14T11:25:30;18.63;;;9.50;;
59390;SDS011;53405;57.012;40.984;2024-02-14T11:27:59;19.58;;;10.05;;
59390;SDS011;53405;57.012;40.984;2024-02-14T11:30:30;22.58;;;9.32;;
59390;SDS011;53405;57.012;40.984;2024-02-14T11:35:45;20.30;;;9.93;;
59390;SDS011;53405;57.012;40.984;2024-02-14T11:38:21;22.88;;;12.57;;
59390;SDS011;53405;57.012;40.984;2024-02-14T11:40:53;18.65;;;8.20;;
59390;SDS011;53405;57.012;40.984;2024-02-14T11:43:22;17.02;;;9.48;;
59390;SDS011;53405;57.012;40.984;2024-02-14T11:45:50;17.98;;;8.70;;
59390;SDS011;53405;57.012;40.984;2024-02-14T11:48:19;16.70;;;8.90;;
59390;SDS011;53405;57.012;40.984;2024-02-14T11:50:49;16.83;;;8.23;;
59390;SDS011;53405;57.012;40.984;2024-02-14T11:53:18;16.98;;;8.48;;
59390;SDS011;53405;57.012;40.984;2024-02-14T11:58:16;18.95;;;8.85;;
59390;SDS011;53405;57.012;40.984;2024-02-14T12:03:23;18.90;;;9.30;;
59390;SDS011;53405;57.012;40.984;2024-02-14T12:05:53;16.90;;;6.70;;
59390;SDS011;53405;57.012;40.984;2024-02-14T12:08:21;18.73;;;8.35;;
59390;SDS011;53405;57.012;40.984;2024-02-14T12:10:50;17.50;;;8.73;;
59390;SDS011;53405;57.012;40.984;2024-02-14T12:13:21;20.27;;;9.18;;
59390;SDS011;53405;57.012;40.984;2024-02-14T12:15:50;14.40;;;7.20;;
59390;SDS011;53405;57.012;40.984;2024-02-14T12:18:20;21.63;;;10.07;;
59390;SDS011;53405;57.012;40.984;2024-02-14T12:20:51;20.25;;;9.88;;
59390;SDS011;53405;57.012;40.984;2024-02-14T12:23:23;20.95;;;9.38;;
59390;SDS011;53405;57.012;40.984;2024-02-14T12:25:54;16.88;;;8.20;;
59390;SDS011;53405;57.012;40.984;2024-02-14T12:28:29;15.10;;;7.25;;
59390;SDS011;53405;57.012;40.984;2024-02-14T12:33:27;23.40;;;10.95;;
59390;SDS011;53405;57.012;40.984;2024-02-14T12:38:26;17.85;;;9.70;;
59390;SDS011;53405;57.012;40.984;2024-02-14T12:40:54;17.95;;;8.07;;
59390;SDS011;53405;57.012;40.984;2024-02-14T12:43:22;20.15;;;9.80;;
59390;SDS011;53405;57.012;40.984;2024-02-14T12:45:50;22.55;;;9.98;;
59390;SDS011;53405;57.012;40.984;2024-02-14T12:48:22;20.52;;;10.30;;
59390;SDS011;53405;57.012;40.984;2024-02-14T12:50:56;19.95;;;9.68;;
59390;SDS011;53405;57.012;40.984;2024-02-14T12:55:56;26.02;;;13.05;;
59390;SDS011;53405;57.012;40.984;2024-02-14T12:58:24;27.55;;;11.32;;
59390;SDS011;53405;57.012;40.984;2024-02-14T13:00:52;21.38;;;9.70;;
59390;SDS011;53405;57.012;40.984;2024-02-14T13:03:21;22.17;;;10.13;;
59390;SDS011;53405;57.012;40.984;2024-02-14T13:05:49;26.58;;;10.32;;
59390;SDS011;53405;57.012;40.984;2024-02-14T13:08:18;26.35;;;11.75;;
59390;SDS011;53405;57.012;40.984;2024-02-14T13:10:46;31.08;;;13.23;;
59390;SDS011;53405;57.012;40.984;2024-02-14T13:13:15;21.17;;;11.15;;
59390;SDS011;53405;57.012;40.984;2024-02-14T13:15:43;18.73;;;8.95;;
59390;SDS011;53405;57.012;40.984;2024-02-14T13:18:12;18.42;;;9.35;;
59390;SDS011;53405;57.012;40.984;2024-02-14T13:20:40;17.95;;;7.85;;
59390;SDS011;53405;57.012;40.984;2024-02-14T13:25:38;17.80;;;7.70;;
59390;SDS011;53405;57.012;40.984;2024-02-14T13:28:06;23.67;;;9.43;;
59390;SDS011;53405;57.012;40.984;2024-02-14T13:30:34;22.55;;;10.40;;
59390;SDS011;53405;57.012;40.984;2024-02-14T13:33:04;18.48;;;7.95;;
59390;SDS011;53405;57.012;40.984;2024-02-14T13:35:32;21.60;;;9.05;;
59390;SDS011;53405;57.012;40.984;2024-02-14T13:38:05;24.77;;;11.50;;
59390;SDS011;53405;57.012;40.984;2024-02-14T13:40:33;24.95;;;12.60;;
59390;SDS011;53405;57.012;40.984;2024-02-14T13:43:01;27.20;;;14.00;;
59390;SDS011;53405;57.012;40.984;2024-02-14T13:45:39;22.07;;;10.43;;
59390;SDS011;53405;57.012;40.984;2024-02-14T13:48:09;33.13;;;15.65;;
59390;SDS011;53405;57.012;40.984;2024-02-14T13:50:38;28.98;;;13.30;;
59390;SDS011;53405;57.012;40.984;2024-02-14T13:53:06;30.58;;;15.45;;
59390;SDS011;53405;57.012;40.984;2024-02-14T13:55:34;27.08;;;13.48;;
59390;SDS011;53405;57.012;40.984;2024-02-14T13:58:04;20.10;;;9.98;;
59390;SDS011;53405;57.012;40.984;2024-02-14T14:00:32;23.55;;;11.38;;
59390;SDS011;53405;57.012;40.984;2024-02-14T14:03:01;18.58;;;8.93;;
59390;SDS011;53405;57.012;40.984;2024-02-14T14:05:28;26.95;;;10.07;;
59390;SDS011;53405;57.012;40.984;2024-02-14T14:07:56;20.40;;;10.38;;
59390;SDS011;53405;57.012;40.984;2024-02-14T14:10:26;22.05;;;10.82;;
59390;SDS011;53405;57.012;40.984;2024-02-14T14:12:56;18.92;;;8.45;;
59390;SDS011;53405;57.012;40.984;2024-02-14T14:15:24;18.63;;;8.15;;
59390;SDS011;53405;57.012;40.984;2024-02-14T14:17:54;16.05;;;7.22;;
59390;SDS011;53405;57.012;40.984;2024-02-14T14:20:21;18.27;;;9.32;;
59390;SDS011;53405;57.012;40.984;2024-02-14T14:22:49;18.17;;;8.23;;
59390;SDS011;53405;57.012;40.984;2024-02-14T14:25:17;19.35;;;8.65;;
59390;SDS011;53405;57.012;40.984;2024-02-14T14:27:45;20.75;;;8.43;;
59390;SDS011;53405;57.012;40.984;2024-02-14T14:30:13;17.23;;;7.63;;
59390;SDS011;53405;57.012;40.984;2024-02-14T14:32:41;22.10;;;9.57;;
59390;SDS011;53405;57.012;40.984;2024-02-14T14:35:10;18.83;;;8.02;;
59390;SDS011;53405;57.012;40.984;2024-02-14T14:37:39;18.13;;;8.82;;
59390;SDS011;53405;57.012;40.984;2024-02-14T14:40:07;18.95;;;8.73;;
59390;SDS011;53405;57.012;40.984;2024-02-14T14:45:04;23.13;;;9.73;;
59390;SDS011;53405;57.012;40.984;2024-02-14T14:47:33;20.30;;;9.13;;
59390;SDS011;53405;57.012;40.984;2024-02-14T14:50:02;20.77;;;9.88;;
59390;SDS011;53405;57.012;40.984;2024-02-14T14:52:31;21.80;;;9.80;;
59390;SDS011;53405;57.012;40.984;2024-02-14T14:54:59;20.13;;;8.77;;
59390;SDS011;53405;57.012;40.984;2024-02-14T14:57:29;21.20;;;8.88;;